sensor_id;sensor_type;location;lat;lon;timestamp;pressure;altitude;pressure_sealevel;temperature;humidity
9969;BME280;5025;48.890;9.278;2023-03-23T00:01:57;98191.03;;;14.03;51.18
9969;BME280;5025;48.890;9.278;2023-03-23T00:04:22;98187.81;;;14.06;50.95
9969;BME280;5025;48.890;9.278;2023-03-23T00:06:51;98183.75;;;14.08;50.99
9969;BME280;5025;48.890;9.278;2023-03-23T00:09:16;98191.09;;;14.13;50.82
9969;BME280;5025;48.890;9.278;2023-03-23T00:11:42;98185.94;;;14.16;50.50
9969;BME280;5025;48.890;9.278;2023-03-23T00:14:08;98181.03;;;14.19;50.31
9969;BME280;5025;48.890;9.278;2023-03-23T00:16:39;98177.25;;;14.20;50.03
9969;BME280;5025;48.890;9.278;2023-03-23T00:19:08;98181.06;;;14.24;49.91
9969;BME280;5025;48.890;9.278;2023-03-23T00:21:36;98186.50;;;14.24;49.79
9969;BME280;5025;48.890;9.278;2023-03-23T00:24:06;98185.13;;;14.21;49.72
9969;BME280;5025;48.890;9.278;2023-03-23T00:26:32;98181.03;;;14.13;49.90
9969;BME280;5025;48.890;9.278;2023-03-23T00:28:59;98189.72;;;14.10;49.94
9969;BME280;5025;48.890;9.278;2023-03-23T00:31:26;98184.28;;;14.05;50.33
9969;BME280;5025;48.890;9.278;2023-03-23T00:33:56;98173.94;;;14.02;50.43
9969;BME280;5025;48.890;9.278;2023-03-23T00:36:23;98174.75;;;14.03;50.19
9969;BME280;5025;48.890;9.278;2023-03-23T00:38:49;98169.59;;;14.01;50.20
9969;BME280;5025;48.890;9.278;2023-03-23T00:41:15;98173.94;;;14.02;50.24
9969;BME280;5025;48.890;9.278;2023-03-23T00:43:40;98164.69;;;14.03;50.15
9969;BME280;5025;48.890;9.278;2023-03-23T00:46:05;98165.00;;;14.07;50.26
9969;BME280;5025;48.890;9.278;2023-03-23T00:48:34;98162.56;;;14.15;48.95
9969;BME280;5025;48.890;9.278;2023-03-23T00:51:01;98164.22;;;14.16;49.00
9969;BME280;5025;48.890;9.278;2023-03-23T00:53:31;98156.59;;;14.19;49.01
9969;BME280;5025;48.890;9.278;2023-03-23T00:55:57;98152.81;;;14.20;48.96
9969;BME280;5025;48.890;9.278;2023-03-23T00:58:22;98158.53;;;14.23;48.68
9969;BME280;5025;48.890;9.278;2023-03-23T01:00:47;98146.59;;;14.24;48.50
9969;BME280;5025;48.890;9.278;2023-03-23T01:03:12;98137.09;;;14.27;48.13
9969;BME280;5025;48.890;9.278;2023-03-23T01:05:43;98144.41;;;14.26;48.28
9969;BME280;5025;48.890;9.278;2023-03-23T01:08:12;98130.03;;;14.26;48.19
9969;BME280;5025;48.890;9.278;2023-03-23T01:10:38;98135.72;;;14.29;48.00
9969;BME280;5025;48.890;9.278;2023-03-23T01:13:05;98134.09;;;14.33;48.03
9969;BME280;5025;48.890;9.278;2023-03-23T01:15:31;98135.75;;;14.34;47.78
9969;BME280;5025;48.890;9.278;2023-03-23T01:17:57;98135.22;;;14.38;47.84
9969;BME280;5025;48.890;9.278;2023-03-23T01:20:24;98125.69;;;14.40;47.66
9969;BME280;5025;48.890;9.278;2023-03-23T01:22:49;98128.41;;;14.35;47.56
9969;BME280;5025;48.890;9.278;2023-03-23T01:25:15;98116.72;;;14.34;47.41
9969;BME280;5025;48.890;9.278;2023-03-23T01:27:41;98125.16;;;14.33;47.55
9969;BME280;5025;48.890;9.278;2023-03-23T01:30:08;98123.50;;;14.32;47.54
9969;BME280;5025;48.890;9.278;2023-03-23T01:32:34;98117.00;;;14.33;47.43
9969;BME280;5025;48.890;9.278;2023-03-23T01:35:00;98112.09;;;14.30;47.27
9969;BME280;5025;48.890;9.278;2023-03-23T01:37:25;98120.78;;;14.27;47.40
9969;BME280;5025;48.890;9.278;2023-03-23T01:39:55;98117.78;;;14.23;47.58
9969;BME280;5025;48.890;9.278;2023-03-23T01:42:26;98107.19;;;14.22;47.59
9969;BME280;5025;48.890;9.278;2023-03-23T01:47:21;98120.75;;;14.16;47.76
9969;BME280;5025;48.890;9.278;2023-03-23T01:49:49;98109.91;;;14.16;47.68
9969;BME280;5025;48.890;9.278;2023-03-23T01:52:26;98107.47;;;14.15;47.58
9969;BME280;5025;48.890;9.278;2023-03-23T01:54:55;98105.00;;;14.13;47.70
9969;BME280;5025;48.890;9.278;2023-03-23T01:57:23;98104.19;;;14.13;47.64
9969;BME280;5025;48.890;9.278;2023-03-23T01:59:53;98107.72;;;14.13;47.54
9969;BME280;5025;48.890;9.278;2023-03-23T02:02:22;98105.28;;;14.12;47.61
9969;BME280;5025;48.890;9.278;2023-03-23T02:04:48;98102.03;;;14.10;47.21
9969;BME280;5025;48.890;9.278;2023-03-23T02:07:15;98102.84;;;14.10;47.57
9969;BME280;5025;48.890;9.278;2023-03-23T02:09:42;98095.22;;;14.07;47.57
9969;BME280;5025;48.890;9.278;2023-03-23T02:12:07;98091.97;;;14.10;47.43
9969;BME280;5025;48.890;9.278;2023-03-23T02:14:33;98091.44;;;14.08;47.63
9969;BME280;5025;48.890;9.278;2023-03-23T02:17:07;98093.03;;;14.09;47.55
9969;BME280;5025;48.890;9.278;2023-03-23T02:24:55;98082.75;;;14.11;47.47
9969;BME280;5025;48.890;9.278;2023-03-23T02:27:29;98090.91;;;14.11;47.56
9969;BME280;5025;48.890;9.278;2023-03-23T02:30:15;98091.69;;;14.12;47.47
9969;BME280;5025;48.890;9.278;2023-03-23T02:35:34;98082.75;;;14.11;47.40
9969;BME280;5025;48.890;9.278;2023-03-23T02:38:04;98076.22;;;14.12;47.53
9969;BME280;5025;48.890;9.278;2023-03-23T02:40:49;98059.94;;;14.12;46.92
9969;BME280;5025;48.890;9.278;2023-03-23T02:43:18;98059.13;;;14.17;46.37
9969;BME280;5025;48.890;9.278;2023-03-23T02:45:46;98058.56;;;14.20;46.35
9969;BME280;5025;48.890;9.278;2023-03-23T02:48:14;98053.16;;;14.25;46.31
9969;BME280;5025;48.890;9.278;2023-03-23T02:50:44;98050.19;;;14.27;46.26
9969;BME280;5025;48.890;9.278;2023-03-23T02:53:13;98043.66;;;14.28;46.41
9969;BME280;5025;48.890;9.278;2023-03-23T02:55:42;98033.63;;;14.28;46.34
9969;BME280;5025;48.890;9.278;2023-03-23T02:58:09;98045.28;;;14.34;46.42
9969;BME280;5025;48.890;9.278;2023-03-23T03:00:35;98031.16;;;14.32;46.58
9969;BME280;5025;48.890;9.278;2023-03-23T03:03:01;98039.31;;;14.32;46.62
9969;BME280;5025;48.890;9.278;2023-03-23T03:08:55;98034.97;;;14.31;46.84
9969;BME280;5025;48.890;9.278;2023-03-23T03:11:24;98023.81;;;14.32;46.94
9969;BME280;5025;48.890;9.278;2023-03-23T03:13:59;98023.53;;;14.34;46.98
9969;BME280;5025;48.890;9.278;2023-03-23T03:16:38;98023.53;;;14.34;46.99
9969;BME280;5025;48.890;9.278;2023-03-23T03:19:20;98026.53;;;14.32;46.89
9969;BME280;5025;48.890;9.278;2023-03-23T03:21:48;98015.66;;;14.32;46.82
9969;BME280;5025;48.890;9.278;2023-03-23T03:24:18;98021.09;;;14.32;46.88
9969;BME280;5025;48.890;9.278;2023-03-23T03:26:47;98023.53;;;14.34;46.96
9969;BME280;5025;48.890;9.278;2023-03-23T03:29:18;98026.00;;;14.35;47.11
9969;BME280;5025;48.890;9.278;2023-03-23T03:31:46;98026.53;;;14.32;47.09
9969;BME280;5025;48.890;9.278;2023-03-23T03:34:13;98028.44;;;14.32;47.36
9969;BME280;5025;48.890;9.278;2023-03-23T03:36:45;98025.19;;;14.25;47.22
9969;BME280;5025;48.890;9.278;2023-03-23T03:39:13;98020.28;;;14.22;47.56
9969;BME280;5025;48.890;9.278;2023-03-23T03:41:40;98027.91;;;14.20;47.75
9969;BME280;5025;48.890;9.278;2023-03-23T03:44:06;98029.25;;;14.17;47.73
9969;BME280;5025;48.890;9.278;2023-03-23T03:46:33;98025.75;;;14.11;47.94
9969;BME280;5025;48.890;9.278;2023-03-23T03:49:01;98023.00;;;14.06;48.16
9969;BME280;5025;48.890;9.278;2023-03-23T03:51:29;98028.16;;;14.03;48.43
9969;BME280;5025;48.890;9.278;2023-03-23T03:53:54;98019.22;;;14.02;48.53
9969;BME280;5025;48.890;9.278;2023-03-23T03:56:21;98013.78;;;14.02;48.47
9969;BME280;5025;48.890;9.278;2023-03-23T03:58:47;98021.09;;;14.02;48.66
9969;BME280;5025;48.890;9.278;2023-03-23T04:01:13;98022.47;;;13.99;48.79
9969;BME280;5025;48.890;9.278;2023-03-23T04:03:40;98022.72;;;13.92;48.97
9969;BME280;5025;48.890;9.278;2023-03-23T04:06:06;98026.22;;;13.88;49.22
9969;BME280;5025;48.890;9.278;2023-03-23T04:08:33;98008.34;;;13.87;49.21
9969;BME280;5025;48.890;9.278;2023-03-23T04:10:58;98013.75;;;13.87;49.57
9969;BME280;5025;48.890;9.278;2023-03-23T04:13:23;98024.88;;;13.85;49.52
9969;BME280;5025;48.890;9.278;2023-03-23T04:15:49;98020.53;;;13.84;49.50
9969;BME280;5025;48.890;9.278;2023-03-23T04:18:16;98016.19;;;13.83;49.51
9969;BME280;5025;48.890;9.278;2023-03-23T04:20:45;98020.53;;;13.84;49.50
9969;BME280;5025;48.890;9.278;2023-03-23T04:23:13;98031.66;;;13.88;49.57
9969;BME280;5025;48.890;9.278;2023-03-23T04:25:38;98022.44;;;13.89;49.39
9969;BME280;5025;48.890;9.278;2023-03-23T04:28:05;98022.44;;;13.94;49.40
9969;BME280;5025;48.890;9.278;2023-03-23T04:30:30;98027.06;;;13.93;49.35
9969;BME280;5025;48.890;9.278;2023-03-23T04:32:57;98025.69;;;13.91;49.34
9969;BME280;5025;48.890;9.278;2023-03-23T04:35:24;98023.50;;;13.88;49.47
9969;BME280;5025;48.890;9.278;2023-03-23T04:37:51;98021.91;;;13.87;49.62
9969;BME280;5025;48.890;9.278;2023-03-23T04:40:17;98025.16;;;13.89;49.71
9969;BME280;5025;48.890;9.278;2023-03-23T04:42:43;98020.00;;;13.87;49.81
9969;BME280;5025;48.890;9.278;2023-03-23T04:45:14;98022.72;;;13.87;49.84
9969;BME280;5025;48.890;9.278;2023-03-23T04:47:40;98010.25;;;13.91;49.89
9969;BME280;5025;48.890;9.278;2023-03-23T04:50:08;98019.19;;;13.92;49.76
9969;BME280;5025;48.890;9.278;2023-03-23T04:52:35;98008.88;;;13.94;49.59
9969;BME280;5025;48.890;9.278;2023-03-23T04:55:04;98024.91;;;14.01;49.39
9969;BME280;5025;48.890;9.278;2023-03-23T04:57:29;98019.47;;;14.01;49.31
9969;BME280;5025;48.890;9.278;2023-03-23T04:59:54;98025.72;;;14.01;49.57
9969;BME280;5025;48.890;9.278;2023-03-23T05:02:19;98029.22;;;14.02;49.27
9969;BME280;5025;48.890;9.278;2023-03-23T05:04:45;98030.06;;;14.02;49.23
9969;BME280;5025;48.890;9.278;2023-03-23T05:07:11;98030.06;;;14.02;49.37
9969;BME280;5025;48.890;9.278;2023-03-23T05:09:36;98021.63;;;13.98;49.41
9969;BME280;5025;48.890;9.278;2023-03-23T05:12:09;98026.53;;;14.02;49.43
9969;BME280;5025;48.890;9.278;2023-03-23T05:14:35;98026.25;;;14.03;49.48
9969;BME280;5025;48.890;9.278;2023-03-23T05:17:01;98025.44;;;14.03;49.65
9969;BME280;5025;48.890;9.278;2023-03-23T05:19:27;98020.00;;;14.03;49.59
9969;BME280;5025;48.890;9.278;2023-03-23T05:21:53;98017.56;;;14.06;49.43
9969;BME280;5025;48.890;9.278;2023-03-23T05:24:19;98026.81;;;14.10;49.27
9969;BME280;5025;48.890;9.278;2023-03-23T05:26:44;98024.09;;;14.10;49.36
9969;BME280;5025;48.890;9.278;2023-03-23T05:29:13;98024.34;;;14.14;49.38
9969;BME280;5025;48.890;9.278;2023-03-23T05:31:39;98017.03;;;14.14;49.37
9969;BME280;5025;48.890;9.278;2023-03-23T05:34:05;98010.50;;;14.15;49.12
9969;BME280;5025;48.890;9.278;2023-03-23T05:36:30;98017.31;;;14.18;49.01
9969;BME280;5025;48.890;9.278;2023-03-23T05:38:55;98017.56;;;14.22;49.07
9969;BME280;5025;48.890;9.278;2023-03-23T05:41:21;98013.78;;;14.23;48.92
9969;BME280;5025;48.890;9.278;2023-03-23T05:43:48;98011.88;;;14.23;48.88
9969;BME280;5025;48.890;9.278;2023-03-23T05:46:13;98013.50;;;14.24;48.73
9969;BME280;5025;48.890;9.278;2023-03-23T05:48:40;98015.97;;;14.26;48.84
9969;BME280;5025;48.890;9.278;2023-03-23T05:51:05;98018.66;;;14.31;48.57
9969;BME280;5025;48.890;9.278;2023-03-23T05:53:30;98017.31;;;14.33;48.29
9969;BME280;5025;48.890;9.278;2023-03-23T05:56:00;98027.63;;;14.37;48.30
9969;BME280;5025;48.890;9.278;2023-03-23T05:58:26;98019.47;;;14.37;48.15
9969;BME280;5025;48.890;9.278;2023-03-23T06:00:51;98025.72;;;14.37;48.21
9969;BME280;5025;48.890;9.278;2023-03-23T06:03:16;98032.25;;;14.41;48.14
9969;BME280;5025;48.890;9.278;2023-03-23T06:05:43;98034.41;;;14.44;48.33
9969;BME280;5025;48.890;9.278;2023-03-23T06:08:09;98039.84;;;14.44;48.25
9969;BME280;5025;48.890;9.278;2023-03-23T06:10:34;98042.56;;;14.44;48.21
9969;BME280;5025;48.890;9.278;2023-03-23T06:13:01;98053.97;;;14.46;48.19
9969;BME280;5025;48.890;9.278;2023-03-23T06:15:26;98046.94;;;14.45;48.44
9969;BME280;5025;48.890;9.278;2023-03-23T06:17:54;98058.31;;;14.47;48.34
9969;BME280;5025;48.890;9.278;2023-03-23T06:20:21;98050.19;;;14.47;48.30
9969;BME280;5025;48.890;9.278;2023-03-23T06:22:47;98052.91;;;14.47;48.46
9969;BME280;5025;48.890;9.278;2023-03-23T06:25:12;98058.59;;;14.46;48.44
9969;BME280;5025;48.890;9.278;2023-03-23T06:27:38;98068.09;;;14.43;48.49
9969;BME280;5025;48.890;9.278;2023-03-23T06:30:04;98069.47;;;14.46;48.49
9969;BME280;5025;48.890;9.278;2023-03-23T06:32:31;98073.53;;;14.43;48.70
9969;BME280;5025;48.890;9.278;2023-03-23T06:34:57;98069.19;;;14.42;48.67
9969;BME280;5025;48.890;9.278;2023-03-23T06:37:22;98068.38;;;14.42;48.94
9969;BME280;5025;48.890;9.278;2023-03-23T06:39:48;98070.56;;;14.40;49.10
9969;BME280;5025;48.890;9.278;2023-03-23T06:42:14;98076.78;;;14.35;49.42
9969;BME280;5025;48.890;9.278;2023-03-23T06:44:39;98069.19;;;14.27;49.66
9969;BME280;5025;48.890;9.278;2023-03-23T06:47:05;98071.34;;;14.25;49.73
9969;BME280;5025;48.890;9.278;2023-03-23T06:49:30;98069.44;;;14.20;50.04
9969;BME280;5025;48.890;9.278;2023-03-23T06:51:57;98078.41;;;14.21;50.16
9969;BME280;5025;48.890;9.278;2023-03-23T06:54:22;98084.13;;;14.19;50.37
9969;BME280;5025;48.890;9.278;2023-03-23T06:56:47;98088.97;;;14.17;50.96
9969;BME280;5025;48.890;9.278;2023-03-23T06:59:12;98083.28;;;14.13;51.14
9969;BME280;5025;48.890;9.278;2023-03-23T07:01:38;98082.22;;;14.14;51.33
9969;BME280;5025;48.890;9.278;2023-03-23T07:04:04;98097.41;;;14.15;51.60
9969;BME280;5025;48.890;9.278;2023-03-23T07:06:29;98093.34;;;14.13;51.95
9969;BME280;5025;48.890;9.278;2023-03-23T07:08:54;98093.34;;;14.13;52.22
9969;BME280;5025;48.890;9.278;2023-03-23T07:11:20;98091.69;;;14.12;52.22
9969;BME280;5025;48.890;9.278;2023-03-23T07:13:45;98095.78;;;14.14;52.30
9969;BME280;5025;48.890;9.278;2023-03-23T07:16:11;98099.03;;;14.16;52.48
9969;BME280;5025;48.890;9.278;2023-03-23T07:18:36;98108.84;;;14.18;52.43
9969;BME280;5025;48.890;9.278;2023-03-23T07:21:02;98101.75;;;14.16;52.69
9969;BME280;5025;48.890;9.278;2023-03-23T07:23:31;98112.09;;;14.14;52.69
9969;BME280;5025;48.890;9.278;2023-03-23T07:25:57;98113.44;;;14.17;52.79
9969;BME280;5025;48.890;9.278;2023-03-23T07:28:22;98125.94;;;14.18;53.05
9969;BME280;5025;48.890;9.278;2023-03-23T07:30:48;98126.72;;;14.19;53.13
9969;BME280;5025;48.890;9.278;2023-03-23T07:33:13;98135.97;;;14.18;53.11
9969;BME280;5025;48.890;9.278;2023-03-23T07:35:39;98140.31;;;14.19;53.26
9969;BME280;5025;48.890;9.278;2023-03-23T07:38:05;98141.94;;;14.20;53.13
9969;BME280;5025;48.890;9.278;2023-03-23T07:40:31;98152.00;;;14.19;53.58
9969;BME280;5025;48.890;9.278;2023-03-23T07:42:58;98153.34;;;14.16;54.01
9969;BME280;5025;48.890;9.278;2023-03-23T07:45:24;98155.22;;;14.11;54.56
9969;BME280;5025;48.890;9.278;2023-03-23T07:47:50;98158.22;;;14.09;54.78
9969;BME280;5025;48.890;9.278;2023-03-23T07:50:16;98164.47;;;14.10;54.84
9969;BME280;5025;48.890;9.278;2023-03-23T07:52:42;98160.91;;;14.04;54.26
9969;BME280;5025;48.890;9.278;2023-03-23T07:55:10;98158.75;;;14.06;54.17
9969;BME280;5025;48.890;9.278;2023-03-23T07:57:43;98162.03;;;14.08;53.99
9969;BME280;5025;48.890;9.278;2023-03-23T08:00:09;98147.91;;;14.16;53.51
9969;BME280;5025;48.890;9.278;2023-03-23T08:02:37;98152.53;;;14.21;53.48
9969;BME280;5025;48.890;9.278;2023-03-23T08:05:02;98147.91;;;14.22;53.31
9969;BME280;5025;48.890;9.278;2023-03-23T08:07:27;98157.19;;;14.31;52.96
9969;BME280;5025;48.890;9.278;2023-03-23T08:09:53;98163.72;;;14.35;53.07
9969;BME280;5025;48.890;9.278;2023-03-23T08:12:18;98171.31;;;14.38;52.99
9969;BME280;5025;48.890;9.278;2023-03-23T08:14:43;98163.19;;;14.33;52.76
9969;BME280;5025;48.890;9.278;2023-03-23T08:17:08;98170.75;;;14.31;53.04
9969;BME280;5025;48.890;9.278;2023-03-23T08:19:35;98170.75;;;14.31;52.46
9969;BME280;5025;48.890;9.278;2023-03-23T08:22:03;98164.78;;;14.34;52.58
9969;BME280;5025;48.890;9.278;2023-03-23T08:24:28;98172.97;;;14.39;52.09
9969;BME280;5025;48.890;9.278;2023-03-23T08:26:53;98174.03;;;14.43;52.47
9969;BME280;5025;48.890;9.278;2023-03-23T08:29:19;98182.75;;;14.45;52.57
9969;BME280;5025;48.890;9.278;2023-03-23T08:31:46;98176.25;;;14.57;52.53
9969;BME280;5025;48.890;9.278;2023-03-23T08:34:12;98182.75;;;14.50;52.99
9969;BME280;5025;48.890;9.278;2023-03-23T08:36:38;98188.19;;;14.50;53.51
9969;BME280;5025;48.890;9.278;2023-03-23T08:39:03;98177.31;;;14.50;53.82
9969;BME280;5025;48.890;9.278;2023-03-23T08:41:31;98187.34;;;14.50;54.49
9969;BME280;5025;48.890;9.278;2023-03-23T08:43:56;98194.16;;;14.47;54.72
9969;BME280;5025;48.890;9.278;2023-03-23T08:46:22;98189.00;;;14.41;55.65
9969;BME280;5025;48.890;9.278;2023-03-23T08:48:48;98184.91;;;14.43;55.86
9969;BME280;5025;48.890;9.278;2023-03-23T08:51:13;98191.19;;;14.44;56.23
9969;BME280;5025;48.890;9.278;2023-03-23T08:53:39;98203.38;;;14.46;56.46
9969;BME280;5025;48.890;9.278;2023-03-23T08:56:05;98196.31;;;14.40;57.22
9969;BME280;5025;48.890;9.278;2023-03-23T08:58:32;98192.53;;;14.41;57.38
9969;BME280;5025;48.890;9.278;2023-03-23T09:00:57;98200.41;;;14.43;57.63
9969;BME280;5025;48.890;9.278;2023-03-23T09:03:23;98210.47;;;14.42;57.96
9969;BME280;5025;48.890;9.278;2023-03-23T09:05:48;98218.03;;;14.40;58.39
9969;BME280;5025;48.890;9.278;2023-03-23T09:08:13;98220.22;;;14.38;58.37
9969;BME280;5025;48.890;9.278;2023-03-23T09:10:39;98220.25;;;14.48;58.21
9969;BME280;5025;48.890;9.278;2023-03-23T09:13:05;98218.63;;;14.42;58.63
9969;BME280;5025;48.890;9.278;2023-03-23T09:15:31;98215.34;;;14.45;58.44
9969;BME280;5025;48.890;9.278;2023-03-23T09:17:57;98218.09;;;14.61;57.98
9969;BME280;5025;48.890;9.278;2023-03-23T09:20:24;98219.22;;;14.70;57.60
9969;BME280;5025;48.890;9.278;2023-03-23T09:22:52;98219.78;;;14.72;57.92
9969;BME280;5025;48.890;9.278;2023-03-23T09:25:21;98226.03;;;14.73;57.79
9969;BME280;5025;48.890;9.278;2023-03-23T09:27:51;98222.22;;;14.74;57.45
9969;BME280;5025;48.890;9.278;2023-03-23T09:30:22;98222.47;;;14.62;57.27
9969;BME280;5025;48.890;9.278;2023-03-23T09:32:48;98231.13;;;14.59;57.50
9969;BME280;5025;48.890;9.278;2023-03-23T09:35:15;98234.97;;;14.68;57.48
9969;BME280;5025;48.890;9.278;2023-03-23T09:37:43;98247.50;;;14.69;57.27
9969;BME280;5025;48.890;9.278;2023-03-23T09:40:24;98248.56;;;14.73;57.16
9969;BME280;5025;48.890;9.278;2023-03-23T09:43:25;98233.91;;;14.74;57.24
9969;BME280;5025;48.890;9.278;2023-03-23T09:48:49;98251.84;;;14.85;57.15
9969;BME280;5025;48.890;9.278;2023-03-23T09:54:22;98243.69;;;14.75;56.74
9969;BME280;5025;48.890;9.278;2023-03-23T09:56:50;98243.97;;;14.74;56.23
9969;BME280;5025;48.890;9.278;2023-03-23T10:01:50;98245.06;;;14.83;56.78
9969;BME280;5025;48.890;9.278;2023-03-23T10:07:27;98257.03;;;14.97;56.88
9969;BME280;5025;48.890;9.278;2023-03-23T10:09:55;98257.03;;;14.92;56.40
9969;BME280;5025;48.890;9.278;2023-03-23T10:12:34;98243.72;;;14.91;56.68
9969;BME280;5025;48.890;9.278;2023-03-23T10:15:14;98259.47;;;14.88;57.11
9969;BME280;5025;48.890;9.278;2023-03-23T10:17:49;98268.72;;;14.87;57.27
9969;BME280;5025;48.890;9.278;2023-03-23T10:23:20;98268.69;;;14.77;57.11
9969;BME280;5025;48.890;9.278;2023-03-23T10:25:57;98278.19;;;14.75;57.63
9969;BME280;5025;48.890;9.278;2023-03-23T10:28:39;98274.13;;;14.72;58.11
9969;BME280;5025;48.890;9.278;2023-03-23T10:31:10;98277.13;;;14.70;58.10
9969;BME280;5025;48.890;9.278;2023-03-23T10:33:45;98288.00;;;14.81;58.14
9969;BME280;5025;48.890;9.278;2023-03-23T10:36:19;98274.13;;;14.82;57.57
9969;BME280;5025;48.890;9.278;2023-03-23T10:38:57;98280.16;;;14.90;57.55
9969;BME280;5025;48.890;9.278;2023-03-23T10:41:23;98277.97;;;14.92;57.26
9969;BME280;5025;48.890;9.278;2023-03-23T10:43:48;98269.00;;;14.86;57.13
9969;BME280;5025;48.890;9.278;2023-03-23T10:46:42;98278.50;;;14.88;57.50
9969;BME280;5025;48.890;9.278;2023-03-23T10:49:18;98289.38;;;14.88;57.40
9969;BME280;5025;48.890;9.278;2023-03-23T10:51:56;98283.66;;;14.90;57.66
9969;BME280;5025;48.890;9.278;2023-03-23T10:54:38;98294.28;;;14.92;58.02
9969;BME280;5025;48.890;9.278;2023-03-23T10:59:46;98272.50;;;14.71;59.31
9969;BME280;5025;48.890;9.278;2023-03-23T11:02:17;98274.41;;;14.70;60.61
9969;BME280;5025;48.890;9.278;2023-03-23T11:04:54;98270.31;;;14.68;61.20
9969;BME280;5025;48.890;9.278;2023-03-23T11:07:27;98262.69;;;14.70;61.06
9969;BME280;5025;48.890;9.278;2023-03-23T11:09:56;98268.16;;;14.75;61.40
9969;BME280;5025;48.890;9.278;2023-03-23T11:12:21;98262.19;;;14.78;61.21
9969;BME280;5025;48.890;9.278;2023-03-23T11:14:48;98261.09;;;14.79;61.39
9969;BME280;5025;48.890;9.278;2023-03-23T11:17:22;98256.44;;;14.75;61.35
9969;BME280;5025;48.890;9.278;2023-03-23T11:19:49;98262.19;;;14.78;61.93
9969;BME280;5025;48.890;9.278;2023-03-23T11:22:28;98263.56;;;14.91;61.32
9969;BME280;5025;48.890;9.278;2023-03-23T11:24:59;98259.47;;;14.83;60.45
9969;BME280;5025;48.890;9.278;2023-03-23T11:27:27;98272.00;;;14.84;60.62
9969;BME280;5025;48.890;9.278;2023-03-23T11:29:56;98260.53;;;14.77;61.16
9969;BME280;5025;48.890;9.278;2023-03-23T11:32:26;98265.44;;;14.80;61.69
9969;BME280;5025;48.890;9.278;2023-03-23T11:35:00;98257.03;;;14.82;61.01
9969;BME280;5025;48.890;9.278;2023-03-23T11:37:32;98245.34;;;14.92;60.96
9969;BME280;5025;48.890;9.278;2023-03-23T11:42:43;98251.88;;;14.96;62.02
9969;BME280;5025;48.890;9.278;2023-03-23T11:45:32;98242.63;;;14.97;61.82
9969;BME280;5025;48.890;9.278;2023-03-23T11:48:20;98240.47;;;14.94;61.09
9969;BME280;5025;48.890;9.278;2023-03-23T11:50:54;98245.09;;;14.98;61.15
9969;BME280;5025;48.890;9.278;2023-03-23T11:53:42;98248.06;;;15.07;60.88
9969;BME280;5025;48.890;9.278;2023-03-23T11:56:35;98241.56;;;15.03;60.60
9969;BME280;5025;48.890;9.278;2023-03-23T11:59:02;98239.09;;;15.12;60.54
9969;BME280;5025;48.890;9.278;2023-03-23T12:06:58;98243.44;;;15.49;60.49
9969;BME280;5025;48.890;9.278;2023-03-23T12:09:47;98240.16;;;15.62;60.27
9969;BME280;5025;48.890;9.278;2023-03-23T12:12:29;98245.03;;;15.75;59.75
9969;BME280;5025;48.890;9.278;2023-03-23T12:15:15;98248.28;;;15.83;59.72
9969;BME280;5025;48.890;9.278;2023-03-23T12:17:59;98244.22;;;15.80;60.38
9969;BME280;5025;48.890;9.278;2023-03-23T12:23:18;98244.75;;;15.87;60.83
9969;BME280;5025;48.890;9.278;2023-03-23T12:26:06;98242.28;;;15.91;60.76
9969;BME280;5025;48.890;9.278;2023-03-23T12:28:56;98245.00;;;15.91;60.80
9969;BME280;5025;48.890;9.278;2023-03-23T12:31:46;98242.59;;;15.79;61.29
9969;BME280;5025;48.890;9.278;2023-03-23T12:34:53;98231.41;;;15.75;61.71
9969;BME280;5025;48.890;9.278;2023-03-23T12:40:08;98220.75;;;16.00;60.91
9969;BME280;5025;48.890;9.278;2023-03-23T12:42:58;98228.97;;;15.84;61.55
9969;BME280;5025;48.890;9.278;2023-03-23T12:45:47;98220.75;;;15.94;61.49
9969;BME280;5025;48.890;9.278;2023-03-23T12:48:23;98212.31;;;15.91;61.51
9969;BME280;5025;48.890;9.278;2023-03-23T12:51:19;98215.34;;;15.84;61.94
9969;BME280;5025;48.890;9.278;2023-03-23T12:53:50;98218.91;;;15.80;62.35
9969;BME280;5025;48.890;9.278;2023-03-23T12:59:10;98205.00;;;15.76;61.76
9969;BME280;5025;48.890;9.278;2023-03-23T13:01:42;98199.03;;;15.79;61.85
9969;BME280;5025;48.890;9.278;2023-03-23T13:04:14;98202.81;;;15.88;61.46
9969;BME280;5025;48.890;9.278;2023-03-23T13:06:44;98192.47;;;15.85;61.33
9969;BME280;5025;48.890;9.278;2023-03-23T13:09:30;98190.25;;;15.98;61.00
9969;BME280;5025;48.890;9.278;2023-03-23T13:11:59;98194.84;;;16.07;60.66
9969;BME280;5025;48.890;9.278;2023-03-23T13:15:05;98179.53;;;16.17;60.58
9969;BME280;5025;48.890;9.278;2023-03-23T13:17:44;98177.56;;;16.27;60.36
9969;BME280;5025;48.890;9.278;2023-03-23T13:23:20;98179.72;;;16.30;60.07
9969;BME280;5025;48.890;9.278;2023-03-23T13:25:51;98170.94;;;16.44;59.74
9969;BME280;5025;48.890;9.278;2023-03-23T13:28:25;98167.03;;;16.55;59.55
9969;BME280;5025;48.890;9.278;2023-03-23T13:31:02;98165.91;;;16.61;59.49
9969;BME280;5025;48.890;9.278;2023-03-23T13:33:30;98159.38;;;16.62;59.34
9969;BME280;5025;48.890;9.278;2023-03-23T13:35:56;98157.97;;;16.70;59.45
9969;BME280;5025;48.890;9.278;2023-03-23T13:38:30;98157.97;;;16.70;59.11
9969;BME280;5025;48.890;9.278;2023-03-23T13:40:56;98161.16;;;16.77;59.16
9969;BME280;5025;48.890;9.278;2023-03-23T13:43:32;98151.84;;;16.83;58.90
9969;BME280;5025;48.890;9.278;2023-03-23T13:51:35;98155.59;;;16.93;58.51
9969;BME280;5025;48.890;9.278;2023-03-23T13:57:02;98140.88;;;16.94;58.51
9969;BME280;5025;48.890;9.278;2023-03-23T14:04:53;98133.78;;;16.93;58.44
9969;BME280;5025;48.890;9.278;2023-03-23T14:07:20;98136.00;;;16.91;58.46
9969;BME280;5025;48.890;9.278;2023-03-23T14:09:45;98129.75;;;16.90;58.56
9969;BME280;5025;48.890;9.278;2023-03-23T14:12:19;98120.50;;;16.86;58.71
9969;BME280;5025;48.890;9.278;2023-03-23T14:14:49;98117.75;;;16.86;58.68
9969;BME280;5025;48.890;9.278;2023-03-23T14:17:26;98113.66;;;16.89;58.75
9969;BME280;5025;48.890;9.278;2023-03-23T14:19:55;98113.66;;;16.89;58.67
9969;BME280;5025;48.890;9.278;2023-03-23T14:22:36;98097.00;;;16.90;58.50
9969;BME280;5025;48.890;9.278;2023-03-23T14:25:18;98094.84;;;16.87;58.45
9969;BME280;5025;48.890;9.278;2023-03-23T14:27:46;98086.94;;;16.85;58.51
9969;BME280;5025;48.890;9.278;2023-03-23T14:30:17;98101.66;;;16.84;58.34
9969;BME280;5025;48.890;9.278;2023-03-23T14:32:43;98103.88;;;16.82;58.47
9969;BME280;5025;48.890;9.278;2023-03-23T14:37:42;98108.50;;;16.82;58.53
9969;BME280;5025;48.890;9.278;2023-03-23T14:40:16;98102.53;;;16.80;58.60
9969;BME280;5025;48.890;9.278;2023-03-23T14:42:42;98098.16;;;16.79;58.68